Time;durP1;ratioP1;P1;durP2;ratioP2;P2;SDS_P1;SDS_P2;PMS_P1;PMS_P2;Temp;Humidity;BMP_temperature;BMP_pressure;BME280_temperature;BME280_humidity;BME280_pressure;Samples;Min_cycle;Max_cycle;Signal;HPM_P1;HPM_P2
2023/03/06 00:00:08;;;;;;;;;;;4.50;86.10;;;-151.14;100.00;62537.16;5058831;28;19926;-81
2023/03/06 00:02:39;;;;;;;;;;;4.50;86.10;;;-151.14;100.00;62537.16;5076086;28;19926;-82
2023/03/06 00:05:08;;;;;;;;;;;4.40;86.00;;;-151.14;100.00;62537.16;5094235;28;19920;-81
2023/03/06 00:07:36;;;;;;;;;;;4.50;85.90;;;-151.14;100.00;62537.16;5059226;28;19921;-81
2023/03/06 00:10:04;;;;;;;;;;;4.50;86.00;;;-151.14;100.00;62537.16;5058720;28;19927;-81
2023/03/06 00:12:32;;;;;;;;;;;4.40;85.90;;;-151.14;100.00;62537.16;5075740;28;19921;-81
2023/03/06 00:15:02;;;;;;;;;;;4.40;85.90;;;-151.14;100.00;62537.16;5058961;28;19920;-82
2023/03/06 00:17:30;;;;;;;;;;;4.40;86.10;;;-151.14;100.00;62537.16;5059195;28;20234;-81
2023/03/06 00:19:58;;;;;;;;;;;4.40;86.80;;;-151.14;100.00;62537.16;5058532;28;19920;-81
2023/03/06 00:22:26;;;;;;;;;;;4.40;86.10;;;-151.14;100.00;62537.16;5059173;28;19920;-81
2023/03/06 00:24:54;;;;;;;;;;;4.40;86.10;;;-151.14;100.00;62537.16;5058750;28;20127;-81
2023/03/06 00:27:24;;;;;;;;;;;4.40;86.00;;;-151.14;100.00;62537.16;5058860;28;19920;-81
2023/03/06 00:29:55;;;;;;;;;;;4.40;86.20;;;-151.14;100.00;62537.16;5058463;28;20224;-81
2023/03/06 00:32:25;;;;;;;;;;;4.40;86.20;;;-151.14;100.00;62537.16;5058827;28;20123;-81
2023/03/06 00:34:53;;;;;;;;;;;4.40;86.10;;;-151.14;100.00;62537.16;5075645;28;19942;-81
2023/03/06 00:37:21;;;;;;;;;;;4.40;86.10;;;-151.14;100.00;62537.16;5058943;28;19926;-81
2023/03/06 00:39:50;;;;;;;;;;;4.40;86.20;;;-151.14;100.00;62537.16;5058010;28;20122;-81
2023/03/06 00:42:18;;;;;;;;;;;4.40;86.10;;;-151.14;100.00;62537.16;5075401;28;20103;-81
2023/03/06 00:44:46;;;;;;;;;;;4.40;86.10;;;-151.14;100.00;62537.16;5074317;28;19926;-81
2023/03/06 00:47:15;;;;;;;;;;;4.40;85.90;;;-151.14;100.00;62537.16;5093023;28;19920;-81
2023/03/06 00:49:45;;;;;;;;;;;4.40;86.10;;;-151.14;100.00;62537.16;5074945;28;19920;-82
2023/03/06 00:52:13;;;;;;;;;;;4.40;86.00;;;3.11;100.00;62537.16;5058520;28;19927;-82
2023/03/06 00:54:41;;;;;;;;;;;4.40;86.00;;;-151.14;100.00;62537.16;5075106;28;19920;-82
2023/03/06 00:57:09;;;;;;;;;;;4.40;86.00;;;-151.14;100.00;62537.16;5075257;28;19926;-81
2023/03/06 00:59:37;;;;;;;;;;;4.40;86.00;;;-151.14;100.00;62537.16;5057927;28;19920;-82
2023/03/06 01:02:05;;;;;;;;;;;4.40;86.10;;;-151.14;100.00;62537.16;5075237;28;19926;-82
2023/03/06 01:04:33;;;;;;;;;;;4.40;86.00;;;-151.14;100.00;62537.16;5075017;28;19927;-82
2023/03/06 01:07:02;;;;;;;;;;;4.40;86.00;;;-151.14;100.00;62537.16;5093101;28;19920;-82
2023/03/06 01:09:32;;;;;;;;;;;4.40;86.10;;;3.10;100.00;62537.16;5074978;28;19921;-82
2023/03/06 01:12:00;;;;;;;;;;;4.40;86.10;;;-151.14;100.00;62537.16;5058030;28;20211;-82
2023/03/06 01:14:30;;;;;;;;;;;4.40;86.10;;;-151.14;100.00;62537.16;5058130;28;19926;-82
2023/03/06 01:16:58;;;;;;;;;;;4.40;86.00;;;-151.14;100.00;62537.16;5058487;28;19926;-81
2023/03/06 01:19:26;;;;;;;;;;;4.40;86.10;;;-151.14;100.00;62537.16;5045514;28;19921;-82
2023/03/06 01:21:53;;;;;;;;;;;4.40;86.10;;;-151.14;100.00;62537.16;5037753;28;19927;-82
2023/03/06 01:24:24;;;;;;;;;;;4.40;85.90;;;-151.14;100.00;62537.16;5072595;28;19927;-82
2023/03/06 01:26:52;;;;;;;;;;;4.40;85.90;;;-151.14;100.00;62537.16;5054662;28;19927;-82
2023/03/06 01:29:21;;;;;;;;;;;4.40;86.90;;;-151.14;100.00;62537.16;5038349;28;19920;-81
2023/03/06 01:31:49;;;;;;;;;;;4.40;86.20;;;-151.14;100.00;62537.16;5037351;28;19921;-82
2023/03/06 01:34:16;;;;;;;;;;;4.40;86.10;;;-151.14;100.00;62537.16;5054457;28;19927;-82
2023/03/06 01:36:45;;;;;;;;;;;4.40;86.10;;;-151.14;100.00;62537.16;5038027;28;20246;-82
2023/03/06 01:39:12;;;;;;;;;;;4.40;86.20;;;-151.14;100.00;62537.16;5038055;28;20128;-82
2023/03/06 01:41:42;;;;;;;;;;;4.40;86.10;;;3.10;100.00;62537.16;5037255;28;19927;-81
2023/03/06 01:44:12;;;;;;;;;;;4.40;86.10;;;-151.14;100.00;62537.16;5054274;28;19927;-82
2023/03/06 01:46:41;;;;;;;;;;;4.40;86.00;;;-151.14;100.00;62537.16;5037823;28;19943;-82
2023/03/06 01:49:14;;;;;;;;;;;4.40;85.90;;;-151.14;100.00;62537.16;5054636;28;19920;-82
2023/03/06 01:51:46;;;;;;;;;;;4.40;86.00;;;-151.14;100.00;62537.16;5054124;28;19921;-81
2023/03/06 01:54:16;;;;;;;;;;;4.40;86.00;;;-151.14;100.00;62537.16;5043733;28;20212;-81
2023/03/06 01:56:46;;;;;;;;;;;4.40;86.00;;;-151.14;100.00;62537.16;5057293;28;19920;-82
2023/03/06 01:59:15;;;;;;;;;;;4.40;85.80;;;-151.14;100.00;62537.16;5057544;28;19920;-82
2023/03/06 02:01:43;;;;;;;;;;;4.40;86.20;;;-151.14;100.00;62537.16;5073980;28;19920;-82
2023/03/06 02:04:11;;;;;;;;;;;4.40;86.10;;;-151.14;100.00;62537.16;5074074;28;19920;-82
2023/03/06 02:06:41;;;;;;;;;;;4.40;86.10;;;-151.14;100.00;62537.16;5074239;28;19920;-82
2023/03/06 02:09:10;;;;;;;;;;;4.40;86.30;;;-151.14;100.00;62537.16;5074208;28;19920;-82
2023/03/06 02:11:42;;;;;;;;;;;4.40;86.30;;;-151.14;100.00;62537.16;5056832;28;19920;-81
2023/03/06 02:14:12;;;;;;;;;;;4.40;86.10;;;-151.14;100.00;62537.16;5073296;28;19921;-82
2023/03/06 02:16:40;;;;;;;;;;;4.40;86.20;;;-151.14;100.00;62537.16;5057452;28;19920;-81
2023/03/06 02:19:15;;;;;;;;;;;4.40;86.10;;;-151.14;100.00;62537.16;5072076;28;19920;-81
2023/03/06 02:21:43;;;;;;;;;;;4.40;86.30;;;-151.14;100.00;62537.16;5071186;28;19942;-82
2023/03/06 02:24:21;;;;;;;;;;;4.40;86.30;;;-151.14;100.00;62537.16;5037381;28;20150;-82
2023/03/06 02:26:51;;;;;;;;;;;4.40;86.30;;;-151.14;100.00;62537.16;5054047;28;19921;-82
2023/03/06 02:29:22;;;;;;;;;;;4.40;86.10;;;-151.14;100.00;62537.16;5053865;28;19929;-82
2023/03/06 02:31:50;;;;;;;;;;;4.40;86.10;;;-151.14;100.00;62537.16;5036744;28;19921;-81
2023/03/06 02:34:50;;;;;;;;;;;4.40;85.80;;;-151.14;100.00;62537.16;5053483;28;19920;-82
2023/03/06 02:37:18;;;;;;;;;;;4.40;85.90;;;-151.14;100.00;62537.16;5053870;28;19922;-82
2023/03/06 02:39:47;;;;;;;;;;;4.40;85.90;;;-151.14;100.00;62537.16;5053275;28;19943;-81
2023/03/06 02:42:21;;;;;;;;;;;4.40;86.10;;;3.07;100.00;62537.16;5053703;28;19927;-81
2023/03/06 02:44:50;;;;;;;;;;;4.40;85.80;;;-151.14;100.00;62537.16;5036678;28;19927;-82
2023/03/06 02:47:17;;;;;;;;;;;4.40;85.80;;;-151.14;100.00;62537.16;5053526;28;19921;-81
2023/03/06 02:49:45;;;;;;;;;;;4.40;85.80;;;-151.14;100.00;62537.16;5036620;28;19921;-82
2023/03/06 02:52:13;;;;;;;;;;;4.40;86.00;;;-151.14;100.00;62537.16;5036818;28;19927;-81
2023/03/06 02:54:41;;;;;;;;;;;4.40;86.10;;;-151.14;100.00;62537.16;5036763;28;19920;-81
2023/03/06 02:57:09;;;;;;;;;;;4.40;85.90;;;-151.14;100.00;62537.16;5053590;28;20198;-82
2023/03/06 02:59:39;;;;;;;;;;;4.40;85.80;;;-151.14;100.00;62537.16;5036303;28;19921;-82
2023/03/06 03:02:07;;;;;;;;;;;4.40;85.90;;;-151.14;100.00;62537.16;5036867;28;20216;-82
2023/03/06 03:04:35;;;;;;;;;;;4.40;85.90;;;-151.14;100.00;62537.16;5053354;28;20335;-81
2023/03/06 03:07:04;;;;;;;;;;;4.40;86.00;;;-151.14;100.00;62537.16;5036762;28;19920;-82
2023/03/06 03:09:35;;;;;;;;;;;4.40;85.90;;;-151.14;100.00;62537.16;5039020;28;19920;-82
2023/03/06 03:12:05;;;;;;;;;;;4.40;85.90;;;-151.14;100.00;62537.16;5039942;28;19920;-82
2023/03/06 03:14:34;;;;;;;;;;;4.40;85.80;;;-151.14;100.00;62537.16;5040134;28;20101;-82
2023/03/06 03:17:04;;;;;;;;;;;4.40;85.80;;;-151.14;100.00;62537.16;5040153;28;19921;-82
2023/03/06 03:19:32;;;;;;;;;;;4.40;85.90;;;-151.14;100.00;62537.16;5056695;28;19927;-82
2023/03/06 03:22:00;;;;;;;;;;;4.30;85.90;;;-151.14;100.00;62537.16;5039968;28;19926;-82
2023/03/06 03:24:28;;;;;;;;;;;4.40;85.90;;;-151.14;100.00;62537.16;5040050;28;19942;-82
2023/03/06 03:26:56;;;;;;;;;;;4.40;85.80;;;-151.14;100.00;62537.16;5056636;28;19920;-82
2023/03/06 03:29:25;;;;;;;;;;;4.40;85.90;;;-151.14;100.00;62537.16;5056606;28;19920;-82
2023/03/06 03:31:54;;;;;;;;;;;4.40;85.80;;;-151.14;100.00;62537.16;5071276;28;19920;-81
2023/03/06 03:34:27;;;;;;;;;;;4.40;85.80;;;-151.14;100.00;62537.16;5058768;28;19920;-82
2023/03/06 03:36:55;;;;;;;;;;;4.40;85.90;;;-151.14;100.00;62537.16;5059080;28;19926;-82
2023/03/06 03:39:23;;;;;;;;;;;4.30;85.80;;;-151.14;100.00;62537.16;5059889;28;19920;-81
2023/03/06 03:41:52;;;;;;;;;;;4.40;85.90;;;-151.14;100.00;62537.16;5059206;28;19926;-82
2023/03/06 03:44:20;;;;;;;;;;;4.30;85.80;;;3.11;100.00;62537.16;5059468;28;20234;-82
2023/03/06 03:46:49;;;;;;;;;;;4.40;85.90;;;-151.14;100.00;62537.16;5059600;28;19920;-82
2023/03/06 03:49:21;;;;;;;;;;;4.30;86.00;;;-151.14;100.00;62537.16;5059535;28;19920;-81
2023/03/06 03:51:51;;;;;;;;;;;4.40;86.10;;;3.03;100.00;62537.16;5058831;28;19921;-81
2023/03/06 03:54:20;;;;;;;;;;;4.40;85.90;;;-151.14;100.00;62537.16;5076292;28;19920;-82
2023/03/06 03:56:50;;;;;;;;;;;4.30;86.10;;;18.08;100.00;62537.16;5059282;28;20013;-81
2023/03/06 03:59:24;;;;;;;;;;;4.30;86.20;;;-151.14;100.00;62537.16;5076236;28;19952;-82
2023/03/06 04:02:04;;;;;;;;;;;4.30;86.30;;;-151.14;100.00;62537.16;5076471;28;19920;-82
2023/03/06 04:04:36;;;;;;;;;;;4.30;86.20;;;-151.14;100.00;62537.16;5059333;28;19927;-81
2023/03/06 04:07:06;;;;;;;;;;;4.40;86.10;;;-151.14;100.00;62537.16;5059396;28;19920;-82
2023/03/06 04:09:34;;;;;;;;;;;4.30;86.10;;;-151.14;100.00;62537.16;5093864;28;19926;-82
2023/03/06 04:12:01;;;;;;;;;;;4.30;86.30;;;-151.14;100.00;62537.16;5059132;28;19926;-81
2023/03/06 04:14:31;;;;;;;;;;;4.30;86.00;;;-151.14;100.00;62537.16;5059247;28;19920;-82
2023/03/06 04:17:00;;;;;;;;;;;4.30;86.30;;;-151.14;100.00;62537.16;5075876;28;20211;-82
2023/03/06 04:19:28;;;;;;;;;;;4.30;86.20;;;-151.14;100.00;62537.16;5075818;28;20211;-81
2023/03/06 04:21:56;;;;;;;;;;;4.30;86.40;;;-151.14;100.00;62537.16;5058455;28;19920;-82
2023/03/06 04:24:26;;;;;;;;;;;4.30;86.30;;;-151.14;100.00;62537.16;5058969;28;20208;-82
2023/03/06 04:26:54;;;;;;;;;;;4.30;86.30;;;3.02;100.00;62537.16;5075721;28;19920;-82
2023/03/06 04:29:22;;;;;;;;;;;4.30;86.30;;;-151.14;100.00;62537.16;5059104;28;20207;-82
2023/03/06 04:31:50;;;;;;;;;;;4.30;86.10;;;-151.14;100.00;62537.16;5075088;28;19920;-82
2023/03/06 04:34:18;;;;;;;;;;;4.30;86.00;;;-151.14;100.00;62537.16;5075733;28;19920;-82
2023/03/06 04:36:47;;;;;;;;;;;4.30;86.00;;;-151.14;100.00;62537.16;5058856;28;20219;-81
2023/03/06 04:39:17;;;;;;;;;;;4.30;86.00;;;3.01;100.00;62537.16;5058939;28;19938;-82
2023/03/06 04:41:47;;;;;;;;;;;4.30;86.10;;;-151.14;100.00;62537.16;5091782;28;19920;-82
2023/03/06 04:44:15;;;;;;;;;;;4.30;85.90;;;-151.14;100.00;62537.16;5075539;28;19943;-82
2023/03/06 04:46:43;;;;;;;;;;;4.30;85.80;;;-151.14;100.00;62537.16;5058665;28;19927;-81
2023/03/06 04:49:11;;;;;;;;;;;4.30;86.00;;;-151.14;100.00;62537.16;5058895;28;19920;-81
2023/03/06 04:51:39;;;;;;;;;;;4.30;85.80;;;-151.14;100.00;62537.16;5058075;28;19920;-82
2023/03/06 04:54:06;;;;;;;;;;;4.30;85.70;;;-151.14;100.00;62537.16;5058640;28;19920;-82
2023/03/06 04:56:34;;;;;;;;;;;4.30;85.80;;;-151.14;100.00;62537.16;5058478;28;20123;-82
2023/03/06 04:59:04;;;;;;;;;;;4.30;85.70;;;-151.14;100.00;62537.16;5058442;28;20120;-82
2023/03/06 05:01:32;;;;;;;;;;;4.30;85.70;;;-151.14;100.00;62537.16;5092692;28;19920;-81
2023/03/06 05:04:00;;;;;;;;;;;4.30;85.60;;;-151.14;100.00;62537.16;5093164;28;19926;-81
2023/03/06 05:06:27;;;;;;;;;;;4.30;85.60;;;-151.14;100.00;62537.16;5075408;28;19920;-82
2023/03/06 05:08:55;;;;;;;;;;;4.30;85.60;;;-151.14;100.00;62537.16;5058327;28;19920;-82
2023/03/06 05:11:23;;;;;;;;;;;4.30;85.50;;;-151.14;100.00;62537.16;5074510;28;19920;-82
2023/03/06 05:13:51;;;;;;;;;;;4.40;85.60;;;-151.14;100.00;62537.16;5074984;28;19920;-82
2023/03/06 05:16:21;;;;;;;;;;;4.50;85.60;;;-151.14;100.00;62537.16;5058401;28;19920;-82
2023/03/06 05:18:49;;;;;;;;;;;4.50;84.70;;;-151.14;100.00;62537.16;5075126;28;20234;-82
2023/03/06 05:21:17;;;;;;;;;;;4.50;84.40;;;-151.14;100.00;62537.16;5074292;28;19920;-82
2023/03/06 05:23:45;;;;;;;;;;;4.50;84.20;;;-151.14;100.00;62537.16;5074736;28;19920;-81
2023/03/06 05:26:13;;;;;;;;;;;4.50;84.40;;;-151.14;100.00;62537.16;5074971;28;19920;-82
2023/03/06 05:28:41;;;;;;;;;;;4.50;84.30;;;3.31;100.00;62537.16;5058118;28;19930;-82
2023/03/06 05:31:09;;;;;;;;;;;4.70;84.80;;;-151.14;100.00;62537.16;5073551;28;19920;-82
2023/03/06 05:33:38;;;;;;;;;;;4.80;84.30;;;3.69;100.00;62537.16;5058063;28;20119;-82
2023/03/06 05:36:08;;;;;;;;;;;5.00;83.40;;;-151.14;100.00;62537.16;5074706;28;19920;-82
2023/03/06 05:38:36;;;;;;;;;;;5.10;82.40;;;-151.14;100.00;62537.16;5046062;28;19927;-81
2023/03/06 05:41:04;;;;;;;;;;;5.20;81.50;;;-151.14;100.00;62537.16;5054061;28;19920;-82
2023/03/06 05:43:32;;;;;;;;;;;5.30;81.70;;;4.17;100.00;62537.16;5054406;28;19926;-82
2023/03/06 05:46:01;;;;;;;;;;;5.40;81.40;;;-151.14;100.00;62537.16;5037971;28;19934;-82
2023/03/06 05:48:29;;;;;;;;;;;5.40;81.30;;;-151.14;100.00;62537.16;5081724;28;19919;-82
2023/03/06 05:50:59;;;;;;;;;;;5.50;81.00;;;-151.14;100.00;62537.16;5057415;28;20238;-82
2023/03/06 05:53:28;;;;;;;;;;;5.60;80.90;;;-151.14;100.00;62537.16;5074471;28;19926;-82
2023/03/06 05:55:57;;;;;;;;;;;5.70;80.80;;;-151.14;100.00;62537.16;5091286;28;19920;-82
2023/03/06 05:58:25;;;;;;;;;;;5.80;80.40;;;-151.14;100.00;62537.16;5049890;28;19920;-82
2023/03/06 06:00:53;;;;;;;;;;;5.90;80.10;;;-151.14;100.00;62537.16;5037246;28;19920;-82
2023/03/06 06:03:21;;;;;;;;;;;6.00;79.60;;;-151.14;100.00;62537.16;5054282;28;19943;-82
2023/03/06 06:05:49;;;;;;;;;;;6.10;79.30;;;-151.14;100.00;62537.16;5037620;28;19920;-82
2023/03/06 06:08:18;;;;;;;;;;;6.10;78.90;;;-151.14;100.00;62537.16;5054447;28;19920;-82
2023/03/06 06:10:46;;;;;;;;;;;6.20;78.70;;;-151.14;100.00;62537.16;5037004;28;19921;-82
2023/03/06 06:13:14;;;;;;;;;;;6.10;78.70;;;-151.14;100.00;62537.16;5053966;28;19921;-81
2023/03/06 06:15:42;;;;;;;;;;;6.10;78.90;;;-151.14;100.00;62537.16;5053846;28;19939;-82
2023/03/06 06:18:10;;;;;;;;;;;6.10;79.10;;;-151.14;100.00;62537.16;5037417;28;19936;-82
2023/03/06 06:20:38;;;;;;;;;;;6.00;79.20;;;-151.14;100.00;62537.16;5036952;28;19928;-82
2023/03/06 06:23:06;;;;;;;;;;;6.00;79.60;;;-151.14;100.00;62537.16;5038773;28;19921;-82
2023/03/06 06:25:35;;;;;;;;;;;6.00;79.70;;;-151.14;100.00;62537.16;5057230;28;19927;-82
2023/03/06 06:28:04;;;;;;;;;;;5.90;79.90;;;4.50;100.00;62537.16;5073969;28;19927;-82
2023/03/06 06:30:32;;;;;;;;;;;5.90;80.00;;;-151.14;100.00;62537.16;5091283;28;19920;-82
2023/03/06 06:33:00;;;;;;;;;;;5.90;80.20;;;-151.14;100.00;62537.16;5073757;28;19920;-82
2023/03/06 06:35:28;;;;;;;;;;;5.80;80.20;;;-151.14;100.00;62537.16;5073638;28;19920;-82
2023/03/06 06:37:56;;;;;;;;;;;5.80;80.40;;;-151.14;100.00;62537.16;5073771;28;19926;-82
2023/03/06 06:40:26;;;;;;;;;;;5.80;80.50;;;-151.14;100.00;62537.16;5056503;28;19926;-82
2023/03/06 06:42:55;;;;;;;;;;;5.80;80.70;;;-151.14;100.00;62537.16;5072980;28;20230;-82
2023/03/06 06:45:23;;;;;;;;;;;5.70;80.70;;;-151.14;100.00;62537.16;5056608;28;19926;-81
2023/03/06 06:47:51;;;;;;;;;;;5.70;80.70;;;-151.14;100.00;62537.16;5073789;28;19920;-81
2023/03/06 06:50:19;;;;;;;;;;;5.70;80.90;;;-151.14;100.00;62537.16;5073268;28;19927;-81
2023/03/06 06:52:47;;;;;;;;;;;5.70;80.90;;;-151.14;100.00;62537.16;5073510;28;20240;-81
2023/03/06 06:55:15;;;;;;;;;;;5.80;80.90;;;-151.14;100.00;62537.16;5058246;28;19986;-81
2023/03/06 06:57:43;;;;;;;;;;;5.70;81.00;;;-151.14;100.00;62537.16;5053449;28;19926;-81
2023/03/06 07:00:14;;;;;;;;;;;5.80;80.90;;;-151.14;100.00;62537.16;5052802;28;19927;-81
2023/03/06 07:02:42;;;;;;;;;;;5.80;81.00;;;-151.14;100.00;62537.16;5036741;28;19952;-81
2023/03/06 07:05:10;;;;;;;;;;;5.80;81.10;;;-151.14;100.00;62537.16;5036743;28;19928;-81
2023/03/06 07:07:38;;;;;;;;;;;5.80;81.10;;;-151.14;100.00;62537.16;5036847;28;19930;-81
2023/03/06 07:10:07;;;;;;;;;;;5.80;81.10;;;-151.14;100.00;62537.16;5070495;28;19920;-81
2023/03/06 07:12:35;;;;;;;;;;;5.80;81.10;;;-151.14;100.00;62537.16;5053455;28;19921;-81
2023/03/06 07:15:04;;;;;;;;;;;5.80;81.20;;;-151.14;100.00;62537.16;5053303;28;20230;-81
2023/03/06 07:17:33;;;;;;;;;;;5.80;81.10;;;-151.14;100.00;62537.16;5036508;28;20101;-81
2023/03/06 07:20:01;;;;;;;;;;;5.80;81.20;;;-151.14;100.00;62537.16;5036004;28;20208;-81
2023/03/06 07:22:29;;;;;;;;;;;5.80;81.20;;;-151.14;100.00;62537.16;5070922;28;20212;-81
2023/03/06 07:24:57;;;;;;;;;;;5.90;81.40;;;-151.14;100.00;62537.16;5053216;28;19927;-81
2023/03/06 07:27:25;;;;;;;;;;;5.80;81.20;;;-151.14;100.00;62537.16;5036607;28;19921;-81
2023/03/06 07:29:53;;;;;;;;;;;5.80;81.30;;;-151.14;100.00;62537.16;5035895;28;19928;-81
2023/03/06 07:32:21;;;;;;;;;;;5.90;81.40;;;-151.14;100.00;62537.16;5036580;28;19925;-81
2023/03/06 07:34:50;;;;;;;;;;;5.90;81.40;;;-151.14;100.00;62537.16;5052915;28;19920;-81
2023/03/06 07:37:18;;;;;;;;;;;5.80;81.40;;;-151.14;100.00;62537.16;5070971;28;20112;-81
2023/03/06 07:39:46;;;;;;;;;;;5.90;81.60;;;-151.14;100.00;62537.16;5052325;28;19920;-81
2023/03/06 07:42:15;;;;;;;;;;;5.90;81.60;;;18.09;100.00;62537.16;5036403;28;19927;-81
2023/03/06 07:44:53;;;;;;;;;;;5.90;81.40;;;-151.14;100.00;62537.16;5035958;28;19920;-81
2023/03/06 07:47:21;;;;;;;;;;;5.90;81.30;;;-151.14;100.00;62537.16;5070545;28;19927;-81
2023/03/06 07:49:54;;;;;;;;;;;5.90;81.10;;;-151.14;100.00;62537.16;5035667;28;19920;-81
2023/03/06 07:52:22;;;;;;;;;;;5.90;81.00;;;-151.14;100.00;62537.16;5036251;28;19927;-81
2023/03/06 07:54:49;;;;;;;;;;;5.90;81.00;;;-151.14;100.00;62537.16;5053494;28;20124;-81
2023/03/06 07:57:17;;;;;;;;;;;5.90;81.00;;;-151.14;100.00;62537.16;5039543;28;19921;-81
2023/03/06 07:59:45;;;;;;;;;;;5.90;80.90;;;-151.14;100.00;62537.16;5055587;28;19920;-81
2023/03/06 08:02:13;;;;;;;;;;;6.00;80.90;;;-151.14;100.00;62537.16;5056070;28;19920;-81
2023/03/06 08:04:41;;;;;;;;;;;5.90;80.90;;;-151.14;100.00;62537.16;5072733;28;20121;-81
2023/03/06 08:07:11;;;;;;;;;;;6.00;80.80;;;-151.14;100.00;62537.16;5055979;28;19920;-81
2023/03/06 08:09:39;;;;;;;;;;;6.00;80.60;;;-151.14;100.00;62537.16;5055208;28;20121;-81
2023/03/06 08:12:08;;;;;;;;;;;6.00;80.60;;;-151.14;100.00;62537.16;5055761;28;20226;-81
2023/03/06 08:14:36;;;;;;;;;;;6.00;80.50;;;4.80;100.00;62537.16;5055929;28;20132;-80
2023/03/06 08:17:04;;;;;;;;;;;6.10;80.60;;;4.81;100.00;62537.16;5055947;28;19921;-81
2023/03/06 08:19:32;;;;;;;;;;;6.10;80.50;;;-151.14;100.00;62537.16;5055567;28;19927;-81
2023/03/06 08:22:00;;;;;;;;;;;6.10;80.40;;;-151.14;100.00;62537.16;5055633;28;19926;-80
2023/03/06 08:24:30;;;;;;;;;;;6.10;80.40;;;-151.14;100.00;62537.16;5055572;28;19927;-81
2023/03/06 08:26:58;;;;;;;;;;;6.10;80.40;;;-151.14;100.00;62537.16;5055732;28;19927;-81
2023/03/06 08:29:26;;;;;;;;;;;6.00;80.20;;;-151.14;100.00;62537.16;5055613;28;19944;-81
2023/03/06 08:31:53;;;;;;;;;;;6.10;80.40;;;4.81;100.00;62537.16;5038504;28;19920;-81
2023/03/06 08:34:23;;;;;;;;;;;6.10;80.40;;;-151.14;100.00;62537.16;5073281;28;20230;-81
2023/03/06 08:36:51;;;;;;;;;;;6.10;80.40;;;4.81;100.00;62537.16;5038951;28;20212;-80
2023/03/06 08:39:19;;;;;;;;;;;6.10;80.40;;;-151.14;100.00;62537.16;5073294;28;20204;-81
2023/03/06 08:41:49;;;;;;;;;;;6.10;80.40;;;-151.14;100.00;62537.16;5054938;28;19927;-80
2023/03/06 08:44:17;;;;;;;;;;;6.10;80.50;;;-151.14;100.00;62537.16;5055183;28;20089;-81
2023/03/06 08:46:45;;;;;;;;;;;6.10;80.40;;;-151.14;100.00;62537.16;5038687;28;19920;-81
2023/03/06 08:49:13;;;;;;;;;;;6.10;80.40;;;-151.14;100.00;62537.16;5055620;28;19927;-81
2023/03/06 08:51:41;;;;;;;;;;;6.10;80.50;;;-151.14;100.00;62537.16;5038190;28;19920;-81
2023/03/06 08:54:10;;;;;;;;;;;6.10;80.50;;;;;;5055179;28;19921;-81
2023/03/06 08:56:38;;;;;;;;;;;6.10;80.60;;;-151.14;100.00;62537.16;5055389;28;19921;-81
2023/03/06 08:59:09;;;;;;;;;;;6.00;80.50;;;-151.14;100.00;62537.16;5055106;28;19924;-81
2023/03/06 09:01:37;;;;;;;;;;;6.00;80.60;;;-151.14;100.00;62537.16;5038148;28;19920;-81
2023/03/06 09:04:06;;;;;;;;;;;6.00;80.60;;;-151.14;100.00;62537.16;5038599;28;19921;-81
2023/03/06 09:06:35;;;;;;;;;;;6.00;80.60;;;4.74;100.00;62537.16;5037441;28;19927;-81
2023/03/06 09:09:03;;;;;;;;;;;6.00;80.60;;;-151.14;100.00;62537.16;5055190;28;19927;-81
2023/03/06 09:11:31;;;;;;;;;;;6.00;80.60;;;-151.14;100.00;62537.16;5037873;28;19920;-81
2023/03/06 09:13:59;;;;;;;;;;;6.00;80.70;;;-151.14;100.00;62537.16;5055052;28;19920;-81
2023/03/06 09:16:29;;;;;;;;;;;6.00;80.70;;;-151.14;100.00;62537.16;5054897;28;19921;-81
2023/03/06 09:18:57;;;;;;;;;;;6.00;80.80;;;-151.14;100.00;62537.16;5038609;28;20120;-81
2023/03/06 09:21:26;;;;;;;;;;;6.00;80.80;;;;;;5037870;28;19943;-81
2023/03/06 09:23:53;;;;;;;;;;;6.00;80.80;;;-151.14;100.00;62537.16;5072497;28;19927;-81
2023/03/06 09:26:21;;;;;;;;;;;6.00;80.90;;;-151.14;100.00;62537.16;5054802;28;19920;-81
2023/03/06 09:28:49;;;;;;;;;;;6.00;80.90;;;18.08;100.00;62537.16;5054669;28;19920;-81
2023/03/06 09:31:19;;;;;;;;;;;6.00;80.90;;;-151.14;100.00;62537.16;5071895;28;19921;-81
2023/03/06 09:33:48;;;;;;;;;;;6.00;80.90;;;-151.14;100.00;62537.16;5054762;28;19926;-81
2023/03/06 09:36:17;;;;;;;;;;;5.90;81.00;;;-151.14;100.00;62537.16;5054773;28;19920;-81
2023/03/06 09:38:47;;;;;;;;;;;5.90;81.00;;;-151.14;100.00;62537.16;5038017;28;19929;-81
2023/03/06 09:41:22;;;;;;;;;;;5.90;81.10;;;-151.14;100.00;62537.16;5037427;28;19921;-80
2023/03/06 09:43:51;;;;;;;;;;;5.90;81.10;;;-151.14;100.00;62537.16;5054403;28;19932;-81
2023/03/06 09:46:22;;;;;;;;;;;5.90;81.10;;;-151.14;100.00;62537.16;5037779;28;19927;-81
2023/03/06 09:48:57;;;;;;;;;;;5.90;81.10;;;-151.14;100.00;62537.16;5037882;28;19928;-80
2023/03/06 09:51:27;;;;;;;;;;;5.90;81.10;;;-151.14;100.00;62537.16;5054037;28;19927;-80
2023/03/06 09:53:58;;;;;;;;;;;5.90;81.20;;;-151.14;100.00;62537.16;5054347;28;19927;-81
2023/03/06 09:56:29;;;;;;;;;;;5.90;81.20;;;-151.14;100.00;62537.16;5037598;28;19927;-80
2023/03/06 09:59:01;;;;;;;;;;;5.90;81.10;;;4.51;100.00;62537.16;5054153;28;19927;-80
2023/03/06 10:01:30;;;;;;;;;;;5.80;81.10;;;-151.14;100.00;62537.16;5071276;28;19920;-81
2023/03/06 10:04:05;;;;;;;;;;;5.80;81.20;;;-151.14;100.00;62537.16;5034378;28;19931;-81
2023/03/06 10:06:34;;;;;;;;;;;5.80;81.40;;;-151.14;100.00;62537.16;5017812;28;20116;-81
2023/03/06 10:09:03;;;;;;;;;;;5.80;81.50;;;-151.14;100.00;62537.16;5052029;28;20068;-81
2023/03/06 10:11:33;;;;;;;;;;;5.80;81.60;;;-151.14;100.00;62537.16;5033869;28;19921;-80
2023/03/06 10:14:11;;;;;;;;;;;5.70;81.60;;;-151.14;100.00;62537.16;5017554;28;19927;-80
2023/03/06 10:16:39;;;;;;;;;;;5.80;81.60;;;-151.14;100.00;62537.16;5017810;28;19921;-80
2023/03/06 10:19:12;;;;;;;;;;;5.70;81.70;;;-151.14;100.00;62537.16;5017323;28;19921;-80
2023/03/06 10:21:44;;;;;;;;;;;5.70;81.60;;;-151.14;100.00;62537.16;5017103;28;19927;-81
2023/03/06 10:24:19;;;;;;;;;;;5.70;81.70;;;-151.14;100.00;62537.16;5017537;28;19927;-80
2023/03/06 10:26:49;;;;;;;;;;;5.70;81.60;;;-151.14;100.00;62537.16;5051748;28;19943;-80
2023/03/06 10:29:26;;;;;;;;;;;5.70;81.70;;;-151.14;100.00;62537.16;5051643;28;19927;-80
2023/03/06 10:31:57;;;;;;;;;;;5.70;81.80;;;-151.14;100.00;62537.16;5017027;28;19927;-80
2023/03/06 10:34:29;;;;;;;;;;;5.70;81.90;;;4.37;100.00;62537.16;5017517;28;19927;-80
2023/03/06 10:36:57;;;;;;;;;;;5.70;81.80;;;-151.14;100.00;62537.16;5017380;28;19920;-80
2023/03/06 10:39:27;;;;;;;;;;;5.70;81.80;;;-151.14;100.00;62537.16;5051461;28;19921;-81
2023/03/06 10:41:55;;;;;;;;;;;5.70;81.80;;;-151.14;100.00;62537.16;5016808;28;19928;-81
2023/03/06 10:44:23;;;;;;;;;;;5.70;81.80;;;18.10;100.00;62537.16;5051337;28;19920;-81
2023/03/06 10:46:53;;;;;;;;;;;5.70;81.90;;;-151.14;100.00;62537.16;5033670;28;19921;-81
2023/03/06 10:49:30;;;;;;;;;;;5.70;81.90;;;-151.14;100.00;62537.16;5033882;28;19921;-81
2023/03/06 10:52:01;;;;;;;;;;;5.70;81.80;;;-151.14;100.00;62537.16;5016780;28;20212;-81
2023/03/06 10:54:29;;;;;;;;;;;5.70;81.90;;;-151.14;100.00;62537.16;5017064;28;19921;-80
2023/03/06 10:56:57;;;;;;;;;;;5.70;81.90;;;-151.14;100.00;62537.16;5017086;28;19928;-81
2023/03/06 10:59:27;;;;;;;;;;;5.60;81.70;;;-151.14;100.00;62537.16;5017045;28;19921;-81
2023/03/06 11:01:55;;;;;;;;;;;5.60;81.90;;;;;;5032927;28;20116;-81
2023/03/06 11:04:27;;;;;;;;;;;5.60;81.90;;;-151.14;100.00;62537.16;5047447;28;19920;-81
2023/03/06 11:07:23;;;;;;;;;;;5.60;82.00;;;-151.14;100.00;62537.16;5091112;28;19920;-81
2023/03/06 11:10:01;;;;;;;;;;;5.60;82.10;;;4.23;100.00;62537.16;5049466;28;19920;-81
2023/03/06 11:12:31;;;;;;;;;;;5.60;82.20;;;4.20;100.00;62537.16;5089982;28;20115;-81